AirNav   Everest Fuels
 
 909 users online  

PS55 Core States - 1st PA Heliport
Philadelphia, Pennsylvania, USA

GOING TO PHILADELPHIA?


FAA INFORMATION EFFECTIVE 30 JANUARY 2020

Location

FAA Identifier: PS55
Lat/Long: 39-57-30.4050N 075-11-28.6450W
39-57.506750N 075-11.477417W
39.9584458,-75.1912903
(estimated)
Elevation: 80 ft. / 24 m (estimated)
Variation: 11W (1985)
Time zone: UTC -5 (UTC -4 during Daylight Saving Time)
Zip code: 19104

Heliport Operations

Heliport use: Private use. Permission required prior to landing
Activation date: 07/1985
Control tower: no
ARTCC: NEW YORK CENTER
FSS: WILLIAMSPORT FLIGHT SERVICE STATION
Attendance: MON-FRI 0800-1730
Wind indicator: yes
Segmented circle: no
Lights: SS-SR

Heliport Communications

WX ASOS at PHL (6 nm SW): PHONE 215-492-9617
WX ASOS at PNE (11 nm NE): 121.15 (215-677-0146)
WX AWOS-3 at LOM (11 nm N): 118.925 (215-646-1068)
WX ASOS at VAY (16 nm E): 119.325 (609-267-1176)
WX AWOS-3T at OQN (18 nm W): 121.4 ((610) 692-6190)
  • MULTICOM 132.0.

Nearby radio navigation aids

VOR radial/distance  VOR name  Freq  Var
OODr025/20.0WOODSTOWN VORTAC112.8010W
ARDr226/22.0YARDLEY VOR/DME108.2010W
MXEr093/22.2MODENA VORTAC113.2009W
PTWr142/23.2POTTSTOWN VORTAC116.5009W
DQOr059/25.5DUPONT VORTAC114.0010W
VCNr348/27.3CEDAR LAKE VOR/DME115.2010W
GXUr276/27.5MC GUIRE VORTAC110.6012W
RBVr255/35.2ROBBINSVILLE VORTAC113.8010W
CYNr294/36.0COYLE VORTAC113.4010W

 
NDB name  Hdg/Dist  Freq  Var  ID
AMBLER169/10.927512WING .. -. --.
RAINBOW006/32.536311WRNB .-. -. -...
LAKEHURST273/39.739611WNEL -. . .-..

Heliport Services

Runway Information

Helipad H1

Dimensions: 50 x 50 ft. / 15 x 15 m
Surface: asphalt, in good condition
ROOFTOP.
Runway edge lights: PERI
AND FLOOD LGTS.
Latitude: 39-57.506750N
Longitude: 075-11.477417W
Elevation: 80.0 ft.
Traffic pattern: leftleft

Heliport Ownership and Management from official FAA records

Ownership: Privately-owned
Owner: CORE STATES - 1ST PA BANK
1500 MARKET STREET
PHILADELPHIA, PA 19101
Manager: EDWARD R MANLEY
BROAD & CHESTNUT STS
PHILADELPHIA, PA 19101
Phone 215-786-7470

Additional Remarks

FOR CD CTC PHILADELPHIA APCH AT 800-354-9884.

Instrument Procedures

There are no published instrument procedures at PS55.

Some nearby airports with instrument procedures:

KPHL - Philadelphia International Airport (6 nm SW)
KPNE - Northeast Philadelphia Airport (11 nm NE)
KLOM - Wings Field Airport (11 nm N)
19N - Camden County Airport (16 nm SE)
KVAY - South Jersey Regional Airport (16 nm E)
7N7 - Spitfire Aerodrome (16 nm SW)
17N - Cross Keys Airport (17 nm SE)
N14 - Flying W Airport (18 nm E)
KOQN - Brandywine Regional Airport (18 nm W)
N10 - Perkiomen Valley Airport (18 nm NW)
 
Loc | Ops | Rwys | IFR | FBO | Links
Com | Nav | Svcs | Stats | Notes
Area around PS55 (Core States - 1st PA Heliport)
 
Road maps at: MapQuest Bing Google
 
Aerial photo
No photo
 
Sectional chart

 
Airport distance calculator
Flying to Core States - 1st PA Heliport? Find the distance to fly.

From to PS55

Sunrise and sunset
Times for 16-Feb-2020
 Local
(UTC-5)
 Zulu
(UTC)
Morning civil twilight06:2611:26
Sunrise06:5311:53
Sunset17:3622:36
Evening civil twilight18:0423:04

Current date and time
Zulu (UTC)  17-Feb-2020 01:32:51
Local (UTC-5)  16-Feb-2020 20:32:51
 
METAR
KPHL 
6nm S 
170054Z 22004KT 10SM OVC100 08/M02 A3011 RMK AO2 SLP195 T00781022 $
KPNE 
11nm NE 
170054Z 00000KT 10SM OVC100 05/M03 A3011 RMK AO2 SLP198 T00501028
KLOM 
11nm N 
170115Z AUTO 00000KT 10SM OVC080 02/M02 A3010 RMK AO2 T00241019
KVAY 
17nm E 
ASOS 119.325 609-267-1176
170054Z AUTO 00000KT 10SM OVC100 02/M03 A3010 RMK AO2 SLP194 T00221028
KOQN 
18nm W 
170115Z AUTO 00000KT 10SM BKN080 05/M03 A3010 RMK AO2
TAF
KPHL 
6nm S 
162042Z 1621/1724 24006KT P6SM BKN100 FM170000 24004KT P6SM BKN060 FM170500 32003KT P6SM SCT060 FM171500 02004KT P6SM FEW150
KPNE 
11nm NE 
161720Z 1618/1718 25006KT P6SM BKN100 FM170000 24004KT P6SM BKN050 FM170500 32005KT P6SM SCT050
NOTAMs
Click for the latest NOTAMs
NOTAMs are issued by the DoD/FAA and will open in a separate window not controlled by AirNav.

 

 
 

Would you like to see your business listed on this page?

 If your business provides an interesting product or service to pilots, flight crews, aircraft, or users of the Core States - 1st PA Heliport, you should consider listing it here.  To start the listing process, click on the button below
 
Add a business
 

Other Pages about Core States - 1st PA Heliport

Update a link
 
Copyright © AirNav, LLC. All rights reserved. Privacy Policy  Contact